sensor_id;sensor_type;location;lat;lon;timestamp;P1;durP1;ratioP1;P2;durP2;ratioP2
17207;SDS011;8720;48.488;9.202;2023-04-24T00:00:32;1.53;;;0.90;;
17207;SDS011;8720;48.488;9.202;2023-04-24T00:02:59;1.93;;;0.70;;
17207;SDS011;8720;48.488;9.202;2023-04-24T00:05:27;1.40;;;0.80;;
17207;SDS011;8720;48.488;9.202;2023-04-24T00:07:54;1.10;;;0.70;;
17207;SDS011;8720;48.488;9.202;2023-04-24T00:10:22;1.00;;;0.70;;
17207;SDS011;8720;48.488;9.202;2023-04-24T00:12:50;1.50;;;0.73;;
17207;SDS011;8720;48.488;9.202;2023-04-24T00:15:18;1.33;;;0.80;;
17207;SDS011;8720;48.488;9.202;2023-04-24T00:17:45;1.70;;;0.80;;
17207;SDS011;8720;48.488;9.202;2023-04-24T00:20:12;1.00;;;0.60;;
17207;SDS011;8720;48.488;9.202;2023-04-24T00:22:40;2.20;;;0.87;;
17207;SDS011;8720;48.488;9.202;2023-04-24T00:25:07;1.40;;;0.70;;
17207;SDS011;8720;48.488;9.202;2023-04-24T00:27:35;1.00;;;0.60;;
17207;SDS011;8720;48.488;9.202;2023-04-24T00:30:06;2.20;;;0.90;;
17207;SDS011;8720;48.488;9.202;2023-04-24T00:32:34;2.00;;;0.70;;
17207;SDS011;8720;48.488;9.202;2023-04-24T00:35:01;1.30;;;0.70;;
17207;SDS011;8720;48.488;9.202;2023-04-24T00:37:29;3.37;;;0.93;;
17207;SDS011;8720;48.488;9.202;2023-04-24T00:39:56;1.80;;;1.00;;
17207;SDS011;8720;48.488;9.202;2023-04-24T00:42:24;3.43;;;0.90;;
17207;SDS011;8720;48.488;9.202;2023-04-24T00:44:51;1.30;;;0.80;;
17207;SDS011;8720;48.488;9.202;2023-04-24T00:47:21;1.53;;;0.70;;
17207;SDS011;8720;48.488;9.202;2023-04-24T00:49:49;1.40;;;0.80;;
17207;SDS011;8720;48.488;9.202;2023-04-24T00:52:17;1.63;;;0.70;;
17207;SDS011;8720;48.488;9.202;2023-04-24T00:54:45;2.43;;;0.80;;
17207;SDS011;8720;48.488;9.202;2023-04-24T00:57:13;1.33;;;0.73;;
17207;SDS011;8720;48.488;9.202;2023-04-24T00:59:41;1.10;;;0.70;;
17207;SDS011;8720;48.488;9.202;2023-04-24T01:02:09;1.20;;;0.70;;
17207;SDS011;8720;48.488;9.202;2023-04-24T01:04:39;1.00;;;0.60;;
17207;SDS011;8720;48.488;9.202;2023-04-24T01:07:07;2.63;;;1.20;;
17207;SDS011;8720;48.488;9.202;2023-04-24T01:09:36;1.10;;;0.70;;
17207;SDS011;8720;48.488;9.202;2023-04-24T01:12:06;1.00;;;0.70;;
17207;SDS011;8720;48.488;9.202;2023-04-24T01:14:36;2.07;;;1.23;;
17207;SDS011;8720;48.488;9.202;2023-04-24T01:17:04;2.17;;;1.00;;
17207;SDS011;8720;48.488;9.202;2023-04-24T01:19:32;1.80;;;0.90;;
17207;SDS011;8720;48.488;9.202;2023-04-24T01:22:01;2.47;;;0.90;;
17207;SDS011;8720;48.488;9.202;2023-04-24T01:24:31;1.40;;;1.00;;
17207;SDS011;8720;48.488;9.202;2023-04-24T01:26:58;1.50;;;0.87;;
17207;SDS011;8720;48.488;9.202;2023-04-24T01:29:26;1.97;;;0.87;;
17207;SDS011;8720;48.488;9.202;2023-04-24T01:31:54;1.73;;;1.00;;
17207;SDS011;8720;48.488;9.202;2023-04-24T01:34:23;1.80;;;0.90;;
17207;SDS011;8720;48.488;9.202;2023-04-24T01:36:51;1.40;;;0.80;;
17207;SDS011;8720;48.488;9.202;2023-04-24T01:39:18;1.40;;;0.87;;
17207;SDS011;8720;48.488;9.202;2023-04-24T01:41:49;1.77;;;0.90;;
17207;SDS011;8720;48.488;9.202;2023-04-24T01:44:18;1.37;;;0.93;;
17207;SDS011;8720;48.488;9.202;2023-04-24T01:46:45;1.40;;;0.90;;
17207;SDS011;8720;48.488;9.202;2023-04-24T01:49:12;1.37;;;0.80;;
17207;SDS011;8720;48.488;9.202;2023-04-24T01:51:40;1.10;;;0.70;;
17207;SDS011;8720;48.488;9.202;2023-04-24T01:54:08;1.83;;;0.83;;
17207;SDS011;8720;48.488;9.202;2023-04-24T01:56:35;2.70;;;0.90;;
17207;SDS011;8720;48.488;9.202;2023-04-24T01:59:09;1.77;;;1.00;;
17207;SDS011;8720;48.488;9.202;2023-04-24T02:04:11;1.13;;;0.83;;
17207;SDS011;8720;48.488;9.202;2023-04-24T02:06:39;1.13;;;0.70;;
17207;SDS011;8720;48.488;9.202;2023-04-24T02:09:07;2.17;;;0.90;;
17207;SDS011;8720;48.488;9.202;2023-04-24T02:11:36;1.80;;;0.90;;
17207;SDS011;8720;48.488;9.202;2023-04-24T02:16:42;1.10;;;0.90;;
17207;SDS011;8720;48.488;9.202;2023-04-24T02:19:10;1.80;;;1.30;;
17207;SDS011;8720;48.488;9.202;2023-04-24T02:21:37;1.60;;;1.50;;
17207;SDS011;8720;48.488;9.202;2023-04-24T02:24:07;1.97;;;1.30;;
17207;SDS011;8720;48.488;9.202;2023-04-24T02:26:35;1.73;;;1.63;;
17207;SDS011;8720;48.488;9.202;2023-04-24T02:29:02;1.33;;;0.90;;
17207;SDS011;8720;48.488;9.202;2023-04-24T02:31:29;1.60;;;1.00;;
17207;SDS011;8720;48.488;9.202;2023-04-24T02:33:58;1.80;;;0.90;;
17207;SDS011;8720;48.488;9.202;2023-04-24T02:36:25;1.20;;;0.90;;
17207;SDS011;8720;48.488;9.202;2023-04-24T02:38:53;1.10;;;0.80;;
17207;SDS011;8720;48.488;9.202;2023-04-24T02:41:20;1.80;;;0.90;;
17207;SDS011;8720;48.488;9.202;2023-04-24T02:43:47;1.60;;;1.20;;
17207;SDS011;8720;48.488;9.202;2023-04-24T02:46:15;2.80;;;1.10;;
17207;SDS011;8720;48.488;9.202;2023-04-24T02:48:43;3.50;;;2.00;;
17207;SDS011;8720;48.488;9.202;2023-04-24T02:51:12;1.67;;;1.10;;
17207;SDS011;8720;48.488;9.202;2023-04-24T02:53:39;2.10;;;0.93;;
17207;SDS011;8720;48.488;9.202;2023-04-24T02:56:07;1.60;;;1.17;;
17207;SDS011;8720;48.488;9.202;2023-04-24T02:58:37;1.23;;;0.77;;
17207;SDS011;8720;48.488;9.202;2023-04-24T03:01:04;1.17;;;0.90;;
17207;SDS011;8720;48.488;9.202;2023-04-24T03:03:32;1.73;;;1.00;;
17207;SDS011;8720;48.488;9.202;2023-04-24T03:05:59;2.50;;;1.07;;
17207;SDS011;8720;48.488;9.202;2023-04-24T03:08:28;1.10;;;0.70;;
17207;SDS011;8720;48.488;9.202;2023-04-24T03:10:55;1.50;;;0.93;;
17207;SDS011;8720;48.488;9.202;2023-04-24T03:13:22;1.97;;;1.60;;
17207;SDS011;8720;48.488;9.202;2023-04-24T03:15:50;2.10;;;1.60;;
17207;SDS011;8720;48.488;9.202;2023-04-24T03:18:18;1.60;;;1.20;;
17207;SDS011;8720;48.488;9.202;2023-04-24T03:20:46;1.47;;;1.10;;
17207;SDS011;8720;48.488;9.202;2023-04-24T03:23:14;2.27;;;1.40;;
17207;SDS011;8720;48.488;9.202;2023-04-24T03:25:43;1.60;;;0.93;;
17207;SDS011;8720;48.488;9.202;2023-04-24T03:28:11;2.80;;;1.10;;
17207;SDS011;8720;48.488;9.202;2023-04-24T03:30:46;1.33;;;0.87;;
17207;SDS011;8720;48.488;9.202;2023-04-24T03:33:14;1.40;;;0.90;;
17207;SDS011;8720;48.488;9.202;2023-04-24T03:35:52;3.13;;;1.10;;
17207;SDS011;8720;48.488;9.202;2023-04-24T03:38:19;1.67;;;1.20;;
17207;SDS011;8720;48.488;9.202;2023-04-24T03:40:50;2.50;;;1.10;;
17207;SDS011;8720;48.488;9.202;2023-04-24T03:43:36;3.30;;;1.00;;
17207;SDS011;8720;48.488;9.202;2023-04-24T03:46:05;2.03;;;1.03;;
17207;SDS011;8720;48.488;9.202;2023-04-24T03:48:38;3.23;;;1.00;;
17207;SDS011;8720;48.488;9.202;2023-04-24T03:51:07;1.50;;;0.83;;
17207;SDS011;8720;48.488;9.202;2023-04-24T03:53:37;1.00;;;0.70;;
17207;SDS011;8720;48.488;9.202;2023-04-24T03:56:07;2.30;;;0.80;;
17207;SDS011;8720;48.488;9.202;2023-04-24T03:58:34;1.00;;;0.73;;
17207;SDS011;8720;48.488;9.202;2023-04-24T04:01:02;1.23;;;0.90;;
17207;SDS011;8720;48.488;9.202;2023-04-24T04:03:58;1.40;;;0.83;;
17207;SDS011;8720;48.488;9.202;2023-04-24T04:06:26;1.20;;;0.80;;
17207;SDS011;8720;48.488;9.202;2023-04-24T04:08:56;1.87;;;0.70;;
17207;SDS011;8720;48.488;9.202;2023-04-24T04:11:25;1.10;;;0.80;;
17207;SDS011;8720;48.488;9.202;2023-04-24T04:13:52;1.57;;;1.00;;
17207;SDS011;8720;48.488;9.202;2023-04-24T04:16:21;2.80;;;0.93;;
17207;SDS011;8720;48.488;9.202;2023-04-24T04:18:52;1.40;;;0.90;;
17207;SDS011;8720;48.488;9.202;2023-04-24T04:21:20;1.47;;;1.10;;
17207;SDS011;8720;48.488;9.202;2023-04-24T04:23:51;2.57;;;1.20;;
17207;SDS011;8720;48.488;9.202;2023-04-24T04:26:26;1.30;;;0.80;;
17207;SDS011;8720;48.488;9.202;2023-04-24T04:29:03;1.10;;;0.90;;
17207;SDS011;8720;48.488;9.202;2023-04-24T04:31:36;2.43;;;1.00;;
17207;SDS011;8720;48.488;9.202;2023-04-24T04:34:08;1.33;;;0.90;;
17207;SDS011;8720;48.488;9.202;2023-04-24T04:36:37;1.20;;;1.00;;
17207;SDS011;8720;48.488;9.202;2023-04-24T04:39:31;1.87;;;1.00;;
17207;SDS011;8720;48.488;9.202;2023-04-24T04:42:03;1.93;;;0.80;;
17207;SDS011;8720;48.488;9.202;2023-04-24T04:44:37;1.80;;;1.07;;
17207;SDS011;8720;48.488;9.202;2023-04-24T04:47:06;1.30;;;1.00;;
17207;SDS011;8720;48.488;9.202;2023-04-24T04:49:36;2.53;;;1.30;;
17207;SDS011;8720;48.488;9.202;2023-04-24T04:52:07;2.07;;;1.40;;
17207;SDS011;8720;48.488;9.202;2023-04-24T04:54:34;2.33;;;1.10;;
17207;SDS011;8720;48.488;9.202;2023-04-24T04:57:03;7.13;;;2.07;;
17207;SDS011;8720;48.488;9.202;2023-04-24T04:59:32;2.00;;;1.43;;
17207;SDS011;8720;48.488;9.202;2023-04-24T05:02:04;2.37;;;1.30;;
17207;SDS011;8720;48.488;9.202;2023-04-24T05:04:31;1.97;;;1.37;;
17207;SDS011;8720;48.488;9.202;2023-04-24T05:06:59;2.17;;;1.33;;
17207;SDS011;8720;48.488;9.202;2023-04-24T05:09:31;1.63;;;1.37;;
17207;SDS011;8720;48.488;9.202;2023-04-24T05:12:05;2.70;;;1.60;;
17207;SDS011;8720;48.488;9.202;2023-04-24T05:14:39;2.60;;;1.80;;
17207;SDS011;8720;48.488;9.202;2023-04-24T05:17:08;1.50;;;1.37;;
17207;SDS011;8720;48.488;9.202;2023-04-24T05:19:35;1.77;;;1.50;;
17207;SDS011;8720;48.488;9.202;2023-04-24T05:22:04;2.43;;;1.60;;
17207;SDS011;8720;48.488;9.202;2023-04-24T05:24:34;1.83;;;1.43;;
17207;SDS011;8720;48.488;9.202;2023-04-24T05:27:27;1.53;;;1.33;;
17207;SDS011;8720;48.488;9.202;2023-04-24T05:29:54;2.17;;;1.70;;
17207;SDS011;8720;48.488;9.202;2023-04-24T05:32:21;1.70;;;1.27;;
17207;SDS011;8720;48.488;9.202;2023-04-24T05:34:49;1.53;;;1.43;;
17207;SDS011;8720;48.488;9.202;2023-04-24T05:37:16;4.33;;;1.50;;
17207;SDS011;8720;48.488;9.202;2023-04-24T05:39:43;1.83;;;1.47;;
17207;SDS011;8720;48.488;9.202;2023-04-24T05:42:11;3.47;;;1.70;;
17207;SDS011;8720;48.488;9.202;2023-04-24T05:44:39;2.03;;;1.70;;
17207;SDS011;8720;48.488;9.202;2023-04-24T05:47:06;2.33;;;1.70;;
17207;SDS011;8720;48.488;9.202;2023-04-24T05:49:34;1.70;;;1.50;;
17207;SDS011;8720;48.488;9.202;2023-04-24T05:52:01;3.20;;;2.20;;
17207;SDS011;8720;48.488;9.202;2023-04-24T05:54:30;4.20;;;2.23;;
17207;SDS011;8720;48.488;9.202;2023-04-24T05:56:58;3.67;;;2.50;;
17207;SDS011;8720;48.488;9.202;2023-04-24T05:59:42;2.37;;;1.87;;
17207;SDS011;8720;48.488;9.202;2023-04-24T06:02:14;1.50;;;1.40;;
17207;SDS011;8720;48.488;9.202;2023-04-24T06:04:43;2.93;;;1.90;;
17207;SDS011;8720;48.488;9.202;2023-04-24T06:07:11;1.87;;;1.67;;
17207;SDS011;8720;48.488;9.202;2023-04-24T06:09:41;2.13;;;1.73;;
17207;SDS011;8720;48.488;9.202;2023-04-24T06:12:09;2.30;;;2.10;;
17207;SDS011;8720;48.488;9.202;2023-04-24T06:14:52;2.33;;;1.80;;
17207;SDS011;8720;48.488;9.202;2023-04-24T06:17:26;2.33;;;1.90;;
17207;SDS011;8720;48.488;9.202;2023-04-24T06:19:53;4.00;;;1.80;;
17207;SDS011;8720;48.488;9.202;2023-04-24T06:22:23;2.10;;;1.70;;
17207;SDS011;8720;48.488;9.202;2023-04-24T06:24:50;2.03;;;1.83;;
17207;SDS011;8720;48.488;9.202;2023-04-24T06:27:18;1.90;;;1.80;;
17207;SDS011;8720;48.488;9.202;2023-04-24T06:29:45;1.90;;;1.77;;
17207;SDS011;8720;48.488;9.202;2023-04-24T06:32:19;3.63;;;1.97;;
17207;SDS011;8720;48.488;9.202;2023-04-24T06:34:47;1.90;;;1.70;;
17207;SDS011;8720;48.488;9.202;2023-04-24T06:37:15;2.33;;;1.70;;
17207;SDS011;8720;48.488;9.202;2023-04-24T06:39:42;1.60;;;1.50;;
17207;SDS011;8720;48.488;9.202;2023-04-24T06:42:09;2.00;;;1.80;;
17207;SDS011;8720;48.488;9.202;2023-04-24T06:44:37;2.43;;;1.30;;
17207;SDS011;8720;48.488;9.202;2023-04-24T06:47:06;2.10;;;1.90;;
17207;SDS011;8720;48.488;9.202;2023-04-24T06:49:36;2.03;;;1.80;;
17207;SDS011;8720;48.488;9.202;2023-04-24T06:52:04;3.40;;;1.70;;
17207;SDS011;8720;48.488;9.202;2023-04-24T06:54:31;1.70;;;1.60;;
17207;SDS011;8720;48.488;9.202;2023-04-24T06:56:59;4.63;;;1.50;;
17207;SDS011;8720;48.488;9.202;2023-04-24T06:59:27;1.70;;;1.47;;
17207;SDS011;8720;48.488;9.202;2023-04-24T07:01:56;3.20;;;1.40;;
17207;SDS011;8720;48.488;9.202;2023-04-24T07:04:24;2.80;;;1.77;;
17207;SDS011;8720;48.488;9.202;2023-04-24T07:06:53;2.70;;;1.40;;
17207;SDS011;8720;48.488;9.202;2023-04-24T07:09:20;1.97;;;1.53;;
17207;SDS011;8720;48.488;9.202;2023-04-24T07:11:49;1.70;;;1.50;;
17207;SDS011;8720;48.488;9.202;2023-04-24T07:14:16;1.90;;;1.20;;
17207;SDS011;8720;48.488;9.202;2023-04-24T07:16:44;1.87;;;1.67;;
17207;SDS011;8720;48.488;9.202;2023-04-24T07:19:11;1.70;;;1.50;;
17207;SDS011;8720;48.488;9.202;2023-04-24T07:21:39;1.90;;;1.53;;
17207;SDS011;8720;48.488;9.202;2023-04-24T07:24:08;1.80;;;1.70;;
17207;SDS011;8720;48.488;9.202;2023-04-24T07:26:36;2.00;;;1.60;;
17207;SDS011;8720;48.488;9.202;2023-04-24T07:29:05;2.10;;;1.77;;
17207;SDS011;8720;48.488;9.202;2023-04-24T07:31:32;1.70;;;1.60;;
17207;SDS011;8720;48.488;9.202;2023-04-24T07:34:00;2.00;;;1.80;;
17207;SDS011;8720;48.488;9.202;2023-04-24T07:36:28;2.67;;;2.03;;
17207;SDS011;8720;48.488;9.202;2023-04-24T07:38:56;3.17;;;2.03;;
17207;SDS011;8720;48.488;9.202;2023-04-24T07:41:25;1.90;;;1.53;;
17207;SDS011;8720;48.488;9.202;2023-04-24T07:43:53;3.13;;;2.03;;
17207;SDS011;8720;48.488;9.202;2023-04-24T07:46:21;2.40;;;1.63;;
17207;SDS011;8720;48.488;9.202;2023-04-24T07:48:48;2.30;;;1.70;;
17207;SDS011;8720;48.488;9.202;2023-04-24T07:51:15;2.33;;;1.63;;
17207;SDS011;8720;48.488;9.202;2023-04-24T07:53:43;2.10;;;1.70;;
17207;SDS011;8720;48.488;9.202;2023-04-24T07:56:10;2.00;;;1.80;;
17207;SDS011;8720;48.488;9.202;2023-04-24T07:58:39;1.70;;;1.50;;
17207;SDS011;8720;48.488;9.202;2023-04-24T08:01:06;1.93;;;1.57;;
17207;SDS011;8720;48.488;9.202;2023-04-24T08:03:34;1.67;;;1.53;;
17207;SDS011;8720;48.488;9.202;2023-04-24T08:06:01;2.10;;;1.70;;
17207;SDS011;8720;48.488;9.202;2023-04-24T08:08:29;1.30;;;1.20;;
17207;SDS011;8720;48.488;9.202;2023-04-24T08:10:57;3.53;;;1.50;;
17207;SDS011;8720;48.488;9.202;2023-04-24T08:13:25;2.37;;;1.60;;
17207;SDS011;8720;48.488;9.202;2023-04-24T08:15:53;1.57;;;1.43;;
17207;SDS011;8720;48.488;9.202;2023-04-24T08:18:22;1.50;;;1.30;;
17207;SDS011;8720;48.488;9.202;2023-04-24T08:20:49;1.70;;;1.50;;
17207;SDS011;8720;48.488;9.202;2023-04-24T08:23:17;2.37;;;1.50;;
17207;SDS011;8720;48.488;9.202;2023-04-24T08:25:45;2.17;;;1.30;;
17207;SDS011;8720;48.488;9.202;2023-04-24T08:28:12;4.90;;;1.53;;
17207;SDS011;8720;48.488;9.202;2023-04-24T08:30:45;1.60;;;1.50;;
17207;SDS011;8720;48.488;9.202;2023-04-24T08:33:14;1.83;;;1.57;;
17207;SDS011;8720;48.488;9.202;2023-04-24T08:35:42;1.43;;;1.33;;
17207;SDS011;8720;48.488;9.202;2023-04-24T08:38:09;1.93;;;1.70;;
17207;SDS011;8720;48.488;9.202;2023-04-24T08:40:36;2.50;;;1.53;;
17207;SDS011;8720;48.488;9.202;2023-04-24T08:43:04;1.60;;;1.50;;
17207;SDS011;8720;48.488;9.202;2023-04-24T08:45:32;4.83;;;1.87;;
17207;SDS011;8720;48.488;9.202;2023-04-24T08:48:00;1.87;;;1.60;;
17207;SDS011;8720;48.488;9.202;2023-04-24T08:50:32;2.10;;;1.67;;
17207;SDS011;8720;48.488;9.202;2023-04-24T08:53:02;1.70;;;1.53;;
17207;SDS011;8720;48.488;9.202;2023-04-24T08:55:30;2.43;;;1.80;;
17207;SDS011;8720;48.488;9.202;2023-04-24T08:57:59;1.80;;;1.70;;
17207;SDS011;8720;48.488;9.202;2023-04-24T09:00:29;3.60;;;1.60;;
17207;SDS011;8720;48.488;9.202;2023-04-24T09:02:57;3.17;;;1.80;;
17207;SDS011;8720;48.488;9.202;2023-04-24T09:05:28;3.10;;;2.70;;
17207;SDS011;8720;48.488;9.202;2023-04-24T09:07:58;3.03;;;2.47;;
17207;SDS011;8720;48.488;9.202;2023-04-24T09:10:28;2.77;;;1.70;;
17207;SDS011;8720;48.488;9.202;2023-04-24T09:12:56;2.00;;;1.80;;
17207;SDS011;8720;48.488;9.202;2023-04-24T09:15:27;2.17;;;1.70;;
17207;SDS011;8720;48.488;9.202;2023-04-24T09:17:55;2.43;;;2.23;;
17207;SDS011;8720;48.488;9.202;2023-04-24T09:20:22;1.90;;;1.73;;
17207;SDS011;8720;48.488;9.202;2023-04-24T09:22:53;2.20;;;2.00;;
17207;SDS011;8720;48.488;9.202;2023-04-24T09:25:22;3.70;;;2.13;;
17207;SDS011;8720;48.488;9.202;2023-04-24T09:28:00;5.10;;;2.57;;
17207;SDS011;8720;48.488;9.202;2023-04-24T09:30:30;3.83;;;2.90;;
17207;SDS011;8720;48.488;9.202;2023-04-24T09:33:10;2.13;;;1.93;;
17207;SDS011;8720;48.488;9.202;2023-04-24T09:35:40;2.53;;;1.57;;
17207;SDS011;8720;48.488;9.202;2023-04-24T09:38:09;2.70;;;1.70;;
17207;SDS011;8720;48.488;9.202;2023-04-24T09:40:38;2.07;;;1.43;;
17207;SDS011;8720;48.488;9.202;2023-04-24T09:43:09;2.00;;;1.60;;
17207;SDS011;8720;48.488;9.202;2023-04-24T09:45:38;1.97;;;1.53;;
17207;SDS011;8720;48.488;9.202;2023-04-24T09:48:07;3.13;;;1.77;;
17207;SDS011;8720;48.488;9.202;2023-04-24T09:50:36;1.40;;;1.30;;
17207;SDS011;8720;48.488;9.202;2023-04-24T09:53:04;2.50;;;1.63;;
17207;SDS011;8720;48.488;9.202;2023-04-24T09:55:35;2.70;;;1.53;;
17207;SDS011;8720;48.488;9.202;2023-04-24T09:58:13;2.50;;;1.70;;
17207;SDS011;8720;48.488;9.202;2023-04-24T10:00:40;1.80;;;1.47;;
17207;SDS011;8720;48.488;9.202;2023-04-24T10:03:08;1.60;;;1.50;;
17207;SDS011;8720;48.488;9.202;2023-04-24T10:05:36;3.10;;;1.60;;
17207;SDS011;8720;48.488;9.202;2023-04-24T10:08:07;3.50;;;1.73;;
17207;SDS011;8720;48.488;9.202;2023-04-24T10:10:39;2.07;;;1.60;;
17207;SDS011;8720;48.488;9.202;2023-04-24T10:13:10;1.70;;;1.30;;
17207;SDS011;8720;48.488;9.202;2023-04-24T10:15:40;2.07;;;1.33;;
17207;SDS011;8720;48.488;9.202;2023-04-24T10:18:08;1.57;;;1.47;;
17207;SDS011;8720;48.488;9.202;2023-04-24T10:20:38;2.40;;;1.70;;
17207;SDS011;8720;48.488;9.202;2023-04-24T10:23:06;4.13;;;1.23;;
17207;SDS011;8720;48.488;9.202;2023-04-24T10:25:34;2.03;;;1.40;;
17207;SDS011;8720;48.488;9.202;2023-04-24T10:28:04;2.70;;;1.60;;
17207;SDS011;8720;48.488;9.202;2023-04-24T10:30:32;2.70;;;1.73;;
17207;SDS011;8720;48.488;9.202;2023-04-24T10:33:01;2.33;;;2.00;;
17207;SDS011;8720;48.488;9.202;2023-04-24T10:35:30;1.97;;;1.40;;
17207;SDS011;8720;48.488;9.202;2023-04-24T10:38:01;1.90;;;1.43;;
17207;SDS011;8720;48.488;9.202;2023-04-24T10:40:34;2.37;;;1.50;;
17207;SDS011;8720;48.488;9.202;2023-04-24T10:43:04;1.30;;;1.20;;
17207;SDS011;8720;48.488;9.202;2023-04-24T10:45:36;2.90;;;1.10;;
17207;SDS011;8720;48.488;9.202;2023-04-24T10:48:05;2.77;;;1.53;;
17207;SDS011;8720;48.488;9.202;2023-04-24T10:50:43;1.70;;;1.30;;
17207;SDS011;8720;48.488;9.202;2023-04-24T10:53:12;1.50;;;1.33;;
17207;SDS011;8720;48.488;9.202;2023-04-24T10:55:42;2.70;;;1.20;;
17207;SDS011;8720;48.488;9.202;2023-04-24T10:58:14;2.10;;;1.40;;
17207;SDS011;8720;48.488;9.202;2023-04-24T11:00:43;1.90;;;1.20;;
17207;SDS011;8720;48.488;9.202;2023-04-24T11:03:23;2.23;;;1.30;;
17207;SDS011;8720;48.488;9.202;2023-04-24T11:05:57;1.70;;;1.13;;
17207;SDS011;8720;48.488;9.202;2023-04-24T11:08:28;1.40;;;1.10;;
17207;SDS011;8720;48.488;9.202;2023-04-24T11:10:59;1.30;;;1.10;;
17207;SDS011;8720;48.488;9.202;2023-04-24T11:16:33;2.90;;;1.30;;
17207;SDS011;8720;48.488;9.202;2023-04-24T11:19:06;2.43;;;1.60;;
17207;SDS011;8720;48.488;9.202;2023-04-24T11:21:42;4.23;;;1.53;;
17207;SDS011;8720;48.488;9.202;2023-04-24T11:24:27;1.30;;;1.10;;
17207;SDS011;8720;48.488;9.202;2023-04-24T11:26:58;2.50;;;1.70;;
17207;SDS011;8720;48.488;9.202;2023-04-24T11:29:41;2.03;;;1.30;;
17207;SDS011;8720;48.488;9.202;2023-04-24T11:32:18;1.83;;;1.27;;
17207;SDS011;8720;48.488;9.202;2023-04-24T11:34:57;2.20;;;1.17;;
17207;SDS011;8720;48.488;9.202;2023-04-24T11:37:27;1.77;;;1.20;;
17207;SDS011;8720;48.488;9.202;2023-04-24T11:40:01;1.20;;;1.00;;
17207;SDS011;8720;48.488;9.202;2023-04-24T11:42:33;1.50;;;1.37;;
17207;SDS011;8720;48.488;9.202;2023-04-24T11:45:06;1.37;;;1.10;;
17207;SDS011;8720;48.488;9.202;2023-04-24T11:47:36;1.20;;;0.93;;
17207;SDS011;8720;48.488;9.202;2023-04-24T11:50:05;1.20;;;1.00;;
17207;SDS011;8720;48.488;9.202;2023-04-24T11:52:36;1.70;;;1.33;;
17207;SDS011;8720;48.488;9.202;2023-04-24T11:55:06;1.27;;;1.10;;
17207;SDS011;8720;48.488;9.202;2023-04-24T11:57:50;1.80;;;1.43;;
17207;SDS011;8720;48.488;9.202;2023-04-24T12:00:23;1.80;;;1.10;;
17207;SDS011;8720;48.488;9.202;2023-04-24T12:03:02;1.67;;;1.27;;
17207;SDS011;8720;48.488;9.202;2023-04-24T12:05:32;1.23;;;1.13;;
17207;SDS011;8720;48.488;9.202;2023-04-24T12:08:00;1.20;;;1.10;;
17207;SDS011;8720;48.488;9.202;2023-04-24T12:10:29;2.00;;;1.40;;
17207;SDS011;8720;48.488;9.202;2023-04-24T12:12:58;1.30;;;1.10;;
17207;SDS011;8720;48.488;9.202;2023-04-24T12:15:27;2.03;;;1.20;;
17207;SDS011;8720;48.488;9.202;2023-04-24T12:17:55;1.87;;;1.10;;
17207;SDS011;8720;48.488;9.202;2023-04-24T12:20:24;2.67;;;1.27;;
17207;SDS011;8720;48.488;9.202;2023-04-24T12:22:54;1.40;;;1.13;;
17207;SDS011;8720;48.488;9.202;2023-04-24T12:25:24;1.50;;;0.90;;
17207;SDS011;8720;48.488;9.202;2023-04-24T12:27:54;1.27;;;0.97;;
17207;SDS011;8720;48.488;9.202;2023-04-24T12:30:39;1.80;;;1.20;;
17207;SDS011;8720;48.488;9.202;2023-04-24T12:33:10;1.47;;;1.03;;
17207;SDS011;8720;48.488;9.202;2023-04-24T12:35:39;1.60;;;1.07;;
17207;SDS011;8720;48.488;9.202;2023-04-24T12:38:07;2.30;;;1.30;;
17207;SDS011;8720;48.488;9.202;2023-04-24T12:40:38;3.83;;;1.13;;
17207;SDS011;8720;48.488;9.202;2023-04-24T12:43:12;1.87;;;1.47;;
17207;SDS011;8720;48.488;9.202;2023-04-24T12:45:43;1.50;;;1.17;;
17207;SDS011;8720;48.488;9.202;2023-04-24T12:48:11;1.33;;;1.10;;
17207;SDS011;8720;48.488;9.202;2023-04-24T12:50:39;1.50;;;1.23;;
17207;SDS011;8720;48.488;9.202;2023-04-24T12:53:07;1.57;;;1.47;;
17207;SDS011;8720;48.488;9.202;2023-04-24T12:55:35;1.73;;;1.30;;
17207;SDS011;8720;48.488;9.202;2023-04-24T12:58:03;3.10;;;1.23;;
17207;SDS011;8720;48.488;9.202;2023-04-24T13:00:31;1.93;;;1.50;;
17207;SDS011;8720;48.488;9.202;2023-04-24T13:03:00;1.60;;;1.10;;
17207;SDS011;8720;48.488;9.202;2023-04-24T13:05:28;1.67;;;1.50;;
17207;SDS011;8720;48.488;9.202;2023-04-24T13:07:56;1.50;;;1.20;;
17207;SDS011;8720;48.488;9.202;2023-04-24T13:10:24;1.60;;;1.47;;
17207;SDS011;8720;48.488;9.202;2023-04-24T13:12:51;2.17;;;1.40;;
17207;SDS011;8720;48.488;9.202;2023-04-24T13:15:19;1.50;;;1.40;;
17207;SDS011;8720;48.488;9.202;2023-04-24T13:17:46;1.23;;;1.10;;
17207;SDS011;8720;48.488;9.202;2023-04-24T13:20:15;2.20;;;1.50;;
17207;SDS011;8720;48.488;9.202;2023-04-24T13:22:42;2.20;;;1.40;;
17207;SDS011;8720;48.488;9.202;2023-04-24T13:25:10;1.80;;;1.43;;
17207;SDS011;8720;48.488;9.202;2023-04-24T13:27:37;1.70;;;1.40;;
17207;SDS011;8720;48.488;9.202;2023-04-24T13:30:06;2.30;;;1.33;;
17207;SDS011;8720;48.488;9.202;2023-04-24T13:32:34;2.53;;;1.50;;
17207;SDS011;8720;48.488;9.202;2023-04-24T13:35:02;2.50;;;1.43;;
17207;SDS011;8720;48.488;9.202;2023-04-24T13:37:32;1.97;;;1.30;;
17207;SDS011;8720;48.488;9.202;2023-04-24T13:40:00;1.40;;;1.30;;
17207;SDS011;8720;48.488;9.202;2023-04-24T13:42:29;1.97;;;1.60;;
17207;SDS011;8720;48.488;9.202;2023-04-24T13:44:56;1.97;;;1.30;;
17207;SDS011;8720;48.488;9.202;2023-04-24T13:47:24;1.40;;;1.30;;
17207;SDS011;8720;48.488;9.202;2023-04-24T13:49:52;1.47;;;1.17;;
17207;SDS011;8720;48.488;9.202;2023-04-24T13:52:19;1.53;;;1.33;;
17207;SDS011;8720;48.488;9.202;2023-04-24T13:54:48;1.73;;;1.30;;
17207;SDS011;8720;48.488;9.202;2023-04-24T13:57:15;2.07;;;1.10;;
17207;SDS011;8720;48.488;9.202;2023-04-24T13:59:42;1.60;;;1.20;;
17207;SDS011;8720;48.488;9.202;2023-04-24T14:02:10;2.17;;;1.37;;
17207;SDS011;8720;48.488;9.202;2023-04-24T14:04:38;1.30;;;1.20;;
17207;SDS011;8720;48.488;9.202;2023-04-24T14:07:05;2.00;;;1.30;;
17207;SDS011;8720;48.488;9.202;2023-04-24T14:09:33;1.83;;;1.30;;
17207;SDS011;8720;48.488;9.202;2023-04-24T14:12:02;1.57;;;1.17;;
17207;SDS011;8720;48.488;9.202;2023-04-24T14:14:30;1.50;;;1.20;;
17207;SDS011;8720;48.488;9.202;2023-04-24T14:16:58;1.70;;;1.40;;
17207;SDS011;8720;48.488;9.202;2023-04-24T14:19:25;2.47;;;1.30;;
17207;SDS011;8720;48.488;9.202;2023-04-24T14:21:53;2.00;;;1.37;;
17207;SDS011;8720;48.488;9.202;2023-04-24T14:24:21;3.10;;;1.37;;
17207;SDS011;8720;48.488;9.202;2023-04-24T14:26:49;2.80;;;1.60;;
17207;SDS011;8720;48.488;9.202;2023-04-24T14:29:18;1.73;;;1.10;;
17207;SDS011;8720;48.488;9.202;2023-04-24T14:31:45;1.20;;;1.10;;
17207;SDS011;8720;48.488;9.202;2023-04-24T14:34:13;1.53;;;1.33;;
17207;SDS011;8720;48.488;9.202;2023-04-24T14:36:40;1.63;;;1.33;;
17207;SDS011;8720;48.488;9.202;2023-04-24T14:39:10;1.97;;;1.27;;
17207;SDS011;8720;48.488;9.202;2023-04-24T14:41:37;2.40;;;1.40;;
17207;SDS011;8720;48.488;9.202;2023-04-24T14:44:05;2.80;;;1.43;;
17207;SDS011;8720;48.488;9.202;2023-04-24T14:46:34;1.70;;;1.50;;
17207;SDS011;8720;48.488;9.202;2023-04-24T14:49:01;4.13;;;2.07;;
17207;SDS011;8720;48.488;9.202;2023-04-24T14:51:29;1.60;;;1.40;;
17207;SDS011;8720;48.488;9.202;2023-04-24T14:53:56;3.47;;;1.63;;
17207;SDS011;8720;48.488;9.202;2023-04-24T14:56:24;1.50;;;1.30;;
17207;SDS011;8720;48.488;9.202;2023-04-24T14:58:52;1.77;;;1.37;;
17207;SDS011;8720;48.488;9.202;2023-04-24T15:01:19;1.70;;;1.40;;
17207;SDS011;8720;48.488;9.202;2023-04-24T15:03:48;1.67;;;1.20;;
17207;SDS011;8720;48.488;9.202;2023-04-24T15:06:16;3.03;;;2.23;;
17207;SDS011;8720;48.488;9.202;2023-04-24T15:08:43;2.23;;;1.73;;
17207;SDS011;8720;48.488;9.202;2023-04-24T15:11:11;4.37;;;2.20;;
17207;SDS011;8720;48.488;9.202;2023-04-24T15:13:38;5.40;;;3.03;;
17207;SDS011;8720;48.488;9.202;2023-04-24T15:16:06;2.17;;;1.60;;
17207;SDS011;8720;48.488;9.202;2023-04-24T15:18:33;2.13;;;1.93;;
17207;SDS011;8720;48.488;9.202;2023-04-24T15:21:02;2.03;;;1.93;;